Time;durP1;ratioP1;P1;durP2;ratioP2;P2;SDS_P1;SDS_P2;PMS_P1;PMS_P2;Temp;Humidity;BMP_temperature;BMP_pressure;BME280_temperature;BME280_humidity;BME280_pressure;Samples;Min_cycle;Max_cycle;Signal;HPM_P1;HPM_P2
2022/01/31 00:00:25;;;;;;;6.60;2.20;;;;;;;1.29;63.98;96639.11;110315;1244;69440;-65
2022/01/31 00:03:06;;;;;;;;;;;;;;;1.27;64.03;96629.77;110355;1244;60069;-66
2022/01/31 00:05:35;;;;;;;2.20;1.40;;;;;;;1.24;64.25;96633.30;110392;1244;59679;-67
2022/01/31 00:08:05;;;;;;;3.10;2.50;;;;;;;1.22;64.35;96634.45;110059;1245;71615;-66
2022/01/31 00:10:35;;;;;;;5.30;2.40;;;;;;;1.18;64.43;96636.88;110163;1244;68531;-65
2022/01/31 00:13:08;;;;;;;4.70;2.40;;;;;;;1.13;64.51;96633.52;110451;1244;68619;-66
2022/01/31 00:15:41;;;;;;;3.40;2.10;;;;;;;1.13;64.60;96643.11;110555;1246;60076;-68
2022/01/31 00:18:10;;;;;;;4.40;2.20;;;;;;;1.11;64.81;96651.95;110304;1247;59710;-68
2022/01/31 00:20:40;;;;;;;6.00;2.30;;;;;;;1.11;65.41;96650.79;110313;1247;71345;-69
2022/01/31 00:23:09;;;;;;;2.20;1.50;;;;;;;1.09;66.06;96656.86;110313;1247;68563;-67
2022/01/31 00:25:38;;;;;;;4.20;2.00;;;;;;;1.07;66.20;96668.98;110256;1247;69109;-67
2022/01/31 00:28:07;;;;;;;3.70;2.30;;;;;;;1.03;66.75;96660.24;110337;1245;59763;-66
2022/01/31 00:30:37;;;;;;;5.30;2.20;;;;;;;0.99;67.07;96660.73;110300;1244;59685;-65
2022/01/31 00:33:06;;;;;;;4.00;2.00;;;;;;;0.98;67.87;96662.85;110497;1244;70776;-66
2022/01/31 00:35:37;;;;;;;5.10;2.20;;;;;;;0.92;68.27;96665.04;110447;1244;66824;-66
2022/01/31 00:38:09;;;;;;;2.70;1.90;;;;;;;0.82;69.45;96666.52;110021;1247;68625;-68
2022/01/31 00:40:41;;;;;;;;;;;;;;;0.77;69.86;96666.92;110081;1247;59706;-67
2022/01/31 00:43:12;;;;;;;8.30;3.00;;;;;;;0.71;70.13;96666.19;110063;1247;59716;-66
2022/01/31 00:45:57;;;;;;;3.30;2.20;;;;;;;0.65;70.58;96658.73;110634;1244;70000;-69
2022/01/31 00:48:29;;;;;;;6.90;2.50;;;;;;;0.58;71.02;96652.02;110363;1245;68641;-67
2022/01/31 00:50:58;;;;;;;5.00;2.50;;;;;;;0.54;71.09;96655.48;110258;1244;69454;-68
2022/01/31 00:53:28;;;;;;;3.40;2.30;;;;;;;0.48;71.51;96653.46;110299;1246;59768;-66
2022/01/31 00:55:57;;;;;;;4.10;1.70;;;;;;;0.47;71.83;96653.88;110380;1247;59746;-67
2022/01/31 00:58:27;;;;;;;5.40;2.60;;;;;;;0.41;71.79;96653.80;110270;1247;70673;-66
2022/01/31 01:00:57;;;;;;;3.30;2.40;;;;;;;0.36;72.24;96653.87;110024;1247;68530;-65
2022/01/31 01:03:27;;;;;;;;;;;;;;;0.34;72.37;96652.91;110069;1247;67683;-65
2022/01/31 01:05:57;;;;;;;4.80;2.10;;;;;;;0.30;72.60;96654.45;110414;1246;59787;-66
2022/01/31 01:08:31;;;;;;;8.00;2.90;;;;;;;0.28;72.87;96653.55;110188;1247;60085;-67
2022/01/31 01:11:01;;;;;;;6.20;2.70;;;;;;;0.22;73.63;96651.73;110451;1246;71490;-66
2022/01/31 01:13:31;;;;;;;9.30;2.70;;;;;;;0.18;73.66;96645.36;110432;1247;68623;-65
2022/01/31 01:16:00;;;;;;;7.10;2.50;;;;;;;0.14;74.11;96644.89;110450;1246;68425;-65
2022/01/31 01:18:30;;;;;;;7.40;3.20;;;;;;;0.10;74.32;96641.27;110036;1247;59786;-66
2022/01/31 01:21:01;;;;;;;3.10;2.00;;;;;;;0.08;74.45;96633.67;110460;1247;59694;-66
2022/01/31 01:23:30;;;;;;;7.20;2.90;;;;;;;0.02;74.54;96631.02;110498;1246;71392;-66
2022/01/31 01:26:02;;;;;;;4.00;2.50;;;;;;;0.02;74.41;96621.57;110170;1246;67646;-66
2022/01/31 01:28:32;;;;;;;3.10;1.80;;;;;;;-0.07;74.53;96618.53;110149;1247;69298;-65
2022/01/31 01:31:04;;;;;;;5.10;2.30;;;;;;;-0.11;74.72;96622.14;110019;1247;59746;-65
2022/01/31 01:33:40;;;;;;;5.10;2.50;;;;;;;-0.14;74.79;96629.30;110491;1247;59658;-67
2022/01/31 01:36:11;;;;;;;6.10;2.50;;;;;;;-0.18;74.97;96625.69;109895;1250;71628;-65
2022/01/31 01:38:41;;;;;;;8.30;2.90;;;;;;;-0.19;74.99;96628.33;110134;1247;67829;-66
2022/01/31 01:41:11;;;;;;;5.50;2.80;;;;;;;-0.22;75.07;96631.69;110128;1247;68462;-66
2022/01/31 01:43:42;;;;;;;7.00;2.60;;;;;;;-0.25;75.09;96628.91;110129;1247;59758;-66
2022/01/31 01:46:11;;;;;;;;;;;;;;;-0.23;74.85;96629.18;110154;1247;59726;-66
2022/01/31 01:48:41;;;;;;;5.70;3.00;;;;;;;-0.25;74.77;96625.48;110115;1247;71750;-66
2022/01/31 01:51:15;;;;;;;4.00;2.30;;;;;;;-0.25;74.63;96619.15;110352;1247;67797;-68
2022/01/31 01:53:44;;;;;;;;;;;;;;;-0.26;74.47;96615.95;110543;1243;69465;-65
2022/01/31 01:56:16;;;;;;;2.20;2.00;;;;;;;-0.30;74.27;96611.66;110642;1244;59745;-67
2022/01/31 01:58:49;;;;;;;6.10;3.20;;;;;;;-0.31;73.63;96612.89;110237;1247;59733;-66
2022/01/31 02:01:18;;;;;;;6.10;3.00;;;;;;;-0.28;73.51;96619.42;110266;1247;71359;-68
2022/01/31 02:03:54;;;;;;;7.20;3.30;;;;;;;-0.24;72.64;96621.14;110337;1246;68541;-66
2022/01/31 02:06:29;;;;;;;4.40;1.80;;;;;;;-0.19;72.28;96623.35;110188;1248;67685;-65
2022/01/31 02:09:03;;;;;;;8.00;2.80;;;;;;;-0.15;71.58;96622.13;110483;1245;59744;-67
2022/01/31 02:11:33;;;;;;;5.30;2.60;;;;;;;-0.11;71.37;96634.30;110251;1246;59745;-68
2022/01/31 02:14:04;;;;;;;7.10;2.20;;;;;;;-0.07;70.91;96626.77;110589;1247;70726;-68
2022/01/31 02:16:54;;;;;;;5.00;3.00;;;;;;;-0.01;70.66;96628.59;110599;1245;67801;-68
2022/01/31 02:19:33;;;;;;;7.20;3.00;;;;;;;0.01;70.39;96630.72;110278;1247;69625;-69
2022/01/31 02:22:26;;;;;;;4.60;2.20;;;;;;;0.05;69.99;96630.91;110581;1244;59741;-67
2022/01/31 02:24:59;;;;;;;2.50;2.30;;;;;;;0.07;69.86;96628.06;110601;1244;59671;-67
2022/01/31 02:27:47;;;;;;;7.10;2.40;;;;;;;0.08;69.94;96626.64;110257;1247;70629;-67
2022/01/31 02:30:18;;;;;;;6.80;3.10;;;;;;;0.06;69.93;96632.02;110261;1245;69146;-66
2022/01/31 02:32:48;;;;;;;5.30;2.80;;;;;;;0.11;69.70;96628.23;110137;1247;68658;-65
2022/01/31 02:35:18;;;;;;;4.00;2.20;;;;;;;0.13;69.70;96637.55;110122;1247;59806;-66
2022/01/31 02:37:47;;;;;;;4.40;2.20;;;;;;;0.15;69.55;96638.68;110035;1247;60210;-67
2022/01/31 02:40:24;;;;;;;4.80;3.10;;;;;;;0.17;69.42;96638.59;109918;1247;70752;-68
2022/01/31 02:42:54;;;;;;;3.40;2.10;;;;;;;0.22;69.19;96643.85;110312;1247;68440;-66
2022/01/31 02:45:27;;;;;;;3.30;2.10;;;;;;;0.22;69.27;96647.11;110574;1244;69634;-65
2022/01/31 02:47:59;;;;;;;4.10;2.00;;;;;;;0.18;69.25;96652.40;110134;1247;59744;-66
2022/01/31 02:50:32;;;;;;;5.40;2.00;;;;;;;0.17;69.18;96654.66;110612;1244;59647;-66
2022/01/31 02:53:24;;;;;;;4.50;2.50;;;;;;;0.18;69.31;96657.38;110652;1244;69593;-67
2022/01/31 02:55:57;;;;;;;6.00;2.70;;;;;;;0.16;69.24;96659.01;110343;1247;68655;-65
2022/01/31 02:58:29;;;;;;;5.00;2.30;;;;;;;0.14;69.19;96658.06;110220;1246;69362;-65
2022/01/31 03:00:59;;;;;;;7.30;2.80;;;;;;;0.11;69.24;96653.22;110169;1247;59742;-66
2022/01/31 03:03:33;;;;;;;5.70;2.20;;;;;;;0.14;68.89;96658.23;110110;1247;59669;-65
2022/01/31 03:06:04;;;;;;;6.10;2.30;;;;;;;0.15;69.04;96661.81;110114;1247;70758;-65
2022/01/31 03:08:34;;;;;;;4.50;2.60;;;;;;;0.13;69.02;96662.03;110049;1246;68484;-65
2022/01/31 03:11:21;;;;;;;4.50;2.10;;;;;;;0.14;68.71;96663.54;110158;1248;68652;-69
2022/01/31 03:14:06;;;;;;;9.10;2.90;;;;;;;0.13;68.83;96665.15;110126;1247;59726;-66
2022/01/31 03:16:40;;;;;;;5.30;2.60;;;;;;;0.10;68.84;96671.80;110058;1247;59749;-67
2022/01/31 03:19:16;;;;;;;10.00;3.20;;;;;;;0.05;68.87;96669.92;110166;1247;71643;-65
2022/01/31 03:21:49;;;;;;;5.70;3.00;;;;;;;0.02;68.87;96674.90;109908;1248;67823;-67
2022/01/31 03:24:18;;;;;;;4.70;2.30;;;;;;;-0.05;68.95;96673.59;110049;1247;70014;-66
2022/01/31 03:26:49;;;;;;;7.90;2.80;;;;;;;-0.10;68.96;96665.77;110063;1247;59755;-66
2022/01/31 03:29:19;;;;;;;7.80;3.30;;;;;;;-0.11;68.90;96666.52;110029;1248;59704;-66
2022/01/31 03:31:49;;;;;;;6.80;3.00;;;;;;;-0.12;68.72;96663.97;110078;1247;71588;-68
2022/01/31 03:34:20;;;;;;;6.10;3.10;;;;;;;-0.15;68.77;96664.27;109914;1247;68488;-66
2022/01/31 03:36:50;;;;;;;10.00;3.00;;;;;;;-0.23;68.65;96663.75;109879;1247;69015;-67
2022/01/31 03:39:22;;;;;;;6.80;2.70;;;;;;;-0.31;68.87;96660.49;110021;1247;60147;-66
2022/01/31 03:41:52;;;;;;;4.80;2.40;;;;;;;-0.36;68.66;96657.63;110100;1249;59661;-68
2022/01/31 03:44:22;;;;;;;8.00;3.20;;;;;;;-0.35;68.32;96654.64;110124;1247;71421;-67
2022/01/31 03:46:55;;;;;;;5.80;2.90;;;;;;;-0.36;68.12;96655.07;110089;1247;68433;-66
2022/01/31 03:49:25;;;;;;;8.00;4.60;;;;;;;-0.37;68.07;96653.02;110032;1247;69248;-67
2022/01/31 03:52:05;;;;;;;7.10;3.20;;;;;;;-0.38;68.10;96651.36;110067;1247;59751;-66
2022/01/31 03:54:43;;;;;;;7.80;2.50;;;;;;;-0.46;68.24;96648.98;110107;1247;59625;-67
2022/01/31 03:57:14;;;;;;;4.00;2.70;;;;;;;-0.52;68.36;96648.67;110035;1248;71358;-66
2022/01/31 03:59:55;;;;;;;7.50;3.40;;;;;;;-0.55;68.43;96644.52;110385;1247;67801;-66
2022/01/31 04:02:25;;;;;;;6.30;2.30;;;;;;;-0.56;68.32;96639.58;110430;1246;68818;-66
2022/01/31 04:04:55;;;;;;;5.40;2.60;;;;;;;-0.57;68.11;96639.31;110390;1246;59757;-67
2022/01/31 04:07:25;;;;;;;8.40;3.70;;;;;;;-0.60;68.19;96644.89;110226;1247;59728;-66
2022/01/31 04:09:55;;;;;;;5.80;2.90;;;;;;;-0.57;67.96;96645.10;110536;1247;71404;-66
2022/01/31 04:12:24;;;;;;;3.90;2.30;;;;;;;-0.57;67.65;96645.11;110519;1247;67641;-67
2022/01/31 04:14:53;;;;;;;5.00;2.30;;;;;;;-0.52;67.37;96652.80;110527;1247;68745;-67
2022/01/31 04:17:24;;;;;;;2.80;1.60;;;;;;;-0.54;67.33;96652.02;110525;1247;59672;-67
2022/01/31 04:19:54;;;;;;;4.70;2.80;;;;;;;-0.53;67.35;96651.45;110342;1247;59715;-66
2022/01/31 04:22:27;;;;;;;2.20;1.80;;;;;;;-0.52;67.64;96655.16;110240;1244;71477;-68
2022/01/31 04:25:01;;;;;;;4.90;2.00;;;;;;;-0.54;67.97;96665.19;110271;1247;68407;-68
2022/01/31 04:27:43;;;;;;;6.10;3.00;;;;;;;-0.54;67.61;96677.17;110478;1246;69387;-65
2022/01/31 04:30:14;;;;;;;4.10;2.20;;;;;;;-0.55;67.48;96679.41;110174;1247;59688;-66
2022/01/31 04:32:43;;;;;;;;;;;;;;;-0.57;67.74;96678.47;110460;1247;59660;-68
2022/01/31 04:35:14;;;;;;;3.50;1.50;;;;;;;-0.55;67.74;96678.59;110410;1246;71548;-65
2022/01/31 04:37:43;;;;;;;4.50;2.10;;;;;;;-0.54;68.11;96675.30;110389;1247;67699;-68
2022/01/31 04:40:14;;;;;;;6.50;2.00;;;;;;;-0.56;68.47;96675.54;110418;1247;69343;-68
2022/01/31 04:42:44;;;;;;;6.90;2.20;;;;;;;-0.57;68.99;96670.62;110074;1247;59699;-67
2022/01/31 04:45:14;;;;;;;7.50;3.00;;;;;;;-0.58;69.32;96678.37;110439;1247;59747;-65
2022/01/31 04:47:44;;;;;;;7.40;3.20;;;;;;;-0.60;69.75;96682.57;110270;1245;71640;-67
2022/01/31 04:50:14;;;;;;;5.60;2.90;;;;;;;-0.60;69.94;96682.56;110075;1248;67465;-66
2022/01/31 04:52:44;;;;;;;5.20;2.80;;;;;;;-0.62;69.91;96686.06;110406;1247;68661;-67
2022/01/31 04:55:14;;;;;;;6.00;2.50;;;;;;;-0.70;69.90;96684.48;110008;1250;59719;-67
2022/01/31 04:57:43;;;;;;;7.00;3.00;;;;;;;-0.71;69.99;96678.55;110419;1247;59736;-66
2022/01/31 05:00:13;;;;;;;5.80;2.90;;;;;;;-0.65;69.58;96672.84;110211;1247;70589;-64
2022/01/31 05:02:43;;;;;;;5.90;2.60;;;;;;;-0.66;69.61;96673.89;110077;1247;68602;-65
2022/01/31 05:05:13;;;;;;;5.80;2.50;;;;;;;-0.69;69.60;96674.20;110265;1247;69803;-69
2022/01/31 05:07:42;;;;;;;5.90;2.40;;;;;;;-0.73;69.45;96670.92;110170;1247;59702;-67
2022/01/31 05:10:11;;;;;;;8.20;3.30;;;;;;;-0.76;69.26;96661.80;110370;1244;59675;-68
2022/01/31 05:12:41;;;;;;;4.60;2.60;;;;;;;-0.78;69.04;96660.16;110420;1246;70642;-66
2022/01/31 05:15:11;;;;;;;9.20;3.00;;;;;;;-0.77;68.87;96658.77;110401;1247;68437;-65
2022/01/31 05:17:40;;;;;;;5.60;2.50;;;;;;;-0.78;68.36;96657.09;110154;1247;69449;-66
2022/01/31 05:20:10;;;;;;;6.00;2.70;;;;;;;-0.76;68.04;96660.11;110323;1247;59735;-65
2022/01/31 05:22:39;;;;;;;9.80;3.30;;;;;;;-0.77;68.06;96663.72;110354;1245;59694;-67
2022/01/31 05:25:09;;;;;;;5.30;2.70;;;;;;;-0.79;67.76;96669.61;110147;1247;71691;-68
2022/01/31 05:27:38;;;;;;;;;;;;;;;-0.80;67.86;96672.75;110626;1247;67685;-67
2022/01/31 05:30:08;;;;;;;6.40;2.80;;;;;;;-0.83;68.08;96672.02;110429;1247;69371;-66
2022/01/31 05:32:38;;;;;;;7.40;3.60;;;;;;;-0.84;68.19;96679.23;110246;1246;59674;-66
2022/01/31 05:35:07;;;;;;;7.00;2.70;;;;;;;-0.87;68.26;96682.92;110449;1246;59756;-66
2022/01/31 05:37:36;;;;;;;8.60;3.80;;;;;;;-0.88;68.40;96683.65;110448;1247;71689;-66
2022/01/31 05:40:07;;;;;;;6.80;2.80;;;;;;;-0.87;68.48;96687.38;110439;1246;68202;-65
2022/01/31 05:42:36;;;;;;;6.30;2.90;;;;;;;-0.90;68.61;96695.02;110445;1244;69428;-68
2022/01/31 05:45:09;;;;;;;8.10;2.80;;;;;;;-0.96;68.89;96692.37;110060;1248;59745;-67
2022/01/31 05:47:38;;;;;;;8.90;3.00;;;;;;;-0.98;68.88;96697.90;110109;1247;59680;-66
2022/01/31 05:50:09;;;;;;;6.50;3.10;;;;;;;-1.02;68.95;96705.73;110071;1248;69968;-65
2022/01/31 05:52:38;;;;;;;;;;;;;;;-0.95;68.62;96704.30;110110;1248;67654;-65
2022/01/31 05:55:08;;;;;;;7.00;3.20;;;;;;;-0.88;68.31;96715.31;110139;1247;67714;-64
2022/01/31 05:57:37;;;;;;;7.20;2.90;;;;;;;-0.81;68.27;96723.79;110129;1247;59719;-65
2022/01/31 06:00:08;;;;;;;8.00;3.40;;;;;;;-0.71;67.58;96727.65;110049;1247;59690;-66
2022/01/31 06:02:39;;;;;;;6.10;2.50;;;;;;;-0.55;66.70;96736.79;110078;1247;71578;-65
2022/01/31 06:05:09;;;;;;;6.30;3.40;;;;;;;-0.43;66.41;96734.95;110260;1247;68758;-66
2022/01/31 06:07:38;;;;;;;8.60;2.50;;;;;;;-0.38;66.55;96736.44;110629;1244;70085;-66
2022/01/31 06:10:08;;;;;;;3.80;1.40;;;;;;;-0.36;66.62;96739.63;110502;1247;59731;-64
2022/01/31 06:12:41;;;;;;;4.50;2.40;;;;;;;-0.33;67.28;96737.98;110292;1246;59672;-68
2022/01/31 06:15:13;;;;;;;4.90;2.30;;;;;;;-0.34;67.52;96737.13;110457;1244;71134;-65
2022/01/31 06:17:43;;;;;;;8.90;3.50;;;;;;;-0.32;67.88;96737.92;110115;1247;67809;-68
2022/01/31 06:20:12;;;;;;;8.20;2.70;;;;;;;-0.26;67.80;96741.10;110417;1244;70000;-66
2022/01/31 06:22:50;;;;;;;7.50;3.30;;;;;;;-0.27;68.01;96742.52;110442;1247;59674;-67
2022/01/31 06:25:20;;;;;;;9.10;3.20;;;;;;;-0.27;68.50;96745.08;110321;1246;59728;-65
2022/01/31 06:27:51;;;;;;;5.00;2.20;;;;;;;-0.29;68.56;96746.16;110342;1244;71182;-65
2022/01/31 06:30:25;;;;;;;8.70;2.60;;;;;;;-0.27;68.94;96750.07;110162;1245;68182;-66
2022/01/31 06:32:55;;;;;;;9.90;3.10;;;;;;;-0.28;69.25;96755.58;110098;1247;67687;-67
2022/01/31 06:35:24;;;;;;;3.20;2.20;;;;;;;-0.27;69.29;96755.88;110363;1247;59742;-66
2022/01/31 06:37:53;;;;;;;7.20;3.30;;;;;;;-0.24;69.38;96758.67;110463;1244;59634;-65
2022/01/31 06:40:23;;;;;;;8.90;3.60;;;;;;;-0.17;69.19;96755.46;110443;1245;71521;-66
2022/01/31 06:42:52;;;;;;;8.00;2.80;;;;;;;-0.14;69.17;96751.41;110425;1247;67892;-67
2022/01/31 06:45:21;;;;;;;6.20;2.30;;;;;;;-0.15;69.42;96755.05;110130;1247;68632;-67
2022/01/31 06:47:51;;;;;;;6.00;3.00;;;;;;;-0.10;69.28;96755.86;110200;1247;59719;-65
2022/01/31 06:50:20;;;;;;;3.10;2.50;;;;;;;-0.01;69.05;96757.02;110155;1245;59706;-65
2022/01/31 06:52:54;;;;;;;6.20;3.00;;;;;;;0.09;68.96;96758.34;110430;1244;70928;-67
2022/01/31 06:55:24;;;;;;;10.40;3.20;;;;;;;0.17;68.97;96760.23;110437;1244;67770;-66
2022/01/31 06:57:53;;;;;;;7.30;3.40;;;;;;;0.23;68.80;96761.52;110577;1244;69761;-66
2022/01/31 07:00:22;;;;;;;6.90;2.80;;;;;;;0.32;68.76;96763.05;110052;1244;578691;-64
2022/01/31 07:02:51;;;;;;;5.80;2.60;;;;;;;0.39;68.48;96764.61;110492;1245;59669;-67
2022/01/31 07:05:22;;;;;;;5.80;2.80;;;;;;;0.44;68.42;96766.30;110455;1244;71353;-67
2022/01/31 07:07:51;;;;;;;12.00;3.50;;;;;;;0.46;68.42;96763.11;110388;1245;69142;-67
2022/01/31 07:10:21;;;;;;;7.50;3.70;;;;;;;0.45;68.49;96766.57;110385;1244;68618;-66
2022/01/31 07:12:54;;;;;;;5.70;2.50;;;;;;;0.47;68.39;96765.52;110444;1245;59739;-67
2022/01/31 07:15:23;;;;;;;10.00;3.30;;;;;;;0.49;68.35;96760.23;110187;1248;59678;-65
2022/01/31 07:17:53;;;;;;;9.90;3.00;;;;;;;0.53;68.26;96758.37;110425;1245;71349;-66
2022/01/31 07:20:33;;;;;;;5.10;3.00;;;;;;;0.59;68.07;96757.61;110422;1245;67807;-64
2022/01/31 07:23:16;;;;;;;15.70;4.40;;;;;;;0.68;67.73;96754.45;110214;1247;69531;-67
2022/01/31 07:25:47;;;;;;;9.80;4.10;;;;;;;0.77;67.76;96754.39;110570;1244;59664;-63
2022/01/31 07:28:16;;;;;;;10.70;3.60;;;;;;;0.87;67.35;96751.04;110440;1247;59676;-66
2022/01/31 07:30:56;;;;;;;11.40;4.70;;;;;;;0.91;67.47;96750.35;110123;1248;71768;-65
2022/01/31 07:33:25;;;;;;;14.00;4.70;;;;;;;0.94;67.06;96747.45;110484;1244;68865;-66
2022/01/31 07:35:55;;;;;;;6.00;3.60;;;;;;;0.91;66.86;96745.70;110505;1244;68829;-68
2022/01/31 07:38:24;;;;;;;7.40;4.40;;;;;;;0.94;66.99;96745.73;110355;1245;59871;-67
2022/01/31 07:40:57;;;;;;;8.90;4.10;;;;;;;0.98;66.93;96741.78;110093;1247;59664;-65
2022/01/31 07:43:30;;;;;;;10.50;5.20;;;;;;;1.09;66.74;96738.55;110056;1247;70745;-65
2022/01/31 07:46:00;;;;;;;11.20;5.50;;;;;;;1.16;66.92;96735.17;110534;1246;67819;-66
2022/01/31 07:48:31;;;;;;;14.50;6.00;;;;;;;1.38;66.76;96734.30;110264;1247;69573;-66
2022/01/31 07:51:01;;;;;;;8.90;4.30;;;;;;;1.69;66.49;96730.94;110127;1247;59656;-67
2022/01/31 07:53:30;;;;;;;11.80;5.70;;;;;;;1.99;65.64;96722.42;110354;1244;59751;-65
2022/01/31 07:56:00;;;;;;;9.50;5.00;;;;;;;2.27;64.70;96719.61;110323;1244;70806;-67
2022/01/31 07:58:30;;;;;;;14.30;5.40;;;;;;;2.50;64.93;96724.67;110293;1245;68403;-66
2022/01/31 08:01:00;;;;;;;12.50;5.50;;;;;;;2.73;63.57;96724.68;110388;1245;69433;-66
2022/01/31 08:03:29;;;;;;;16.70;7.70;;;;;;;2.83;62.85;96728.59;110304;1244;60144;-66
2022/01/31 08:05:59;;;;;;;;;;;;;;;2.87;61.96;96728.92;110316;1247;59810;-67
2022/01/31 08:08:31;;;;;;;12.60;6.30;;;;;;;2.88;62.52;96727.16;110516;1244;71567;-66
2022/01/31 08:11:01;;;;;;;11.40;5.70;;;;;;;2.89;61.47;96724.73;110157;1247;69068;-66
2022/01/31 08:13:30;;;;;;;24.00;10.10;;;;;;;2.90;61.85;96724.11;110480;1245;69542;-68
2022/01/31 08:16:09;;;;;;;21.60;10.90;;;;;;;2.96;61.78;96721.55;110534;1243;59824;-66
2022/01/31 08:18:44;;;;;;;11.80;5.70;;;;;;;3.05;61.50;96721.41;110512;1244;59693;-67
2022/01/31 08:21:14;;;;;;;14.50;6.90;;;;;;;3.20;61.08;96716.98;110458;1244;71807;-65
2022/01/31 08:23:43;;;;;;;8.10;4.30;;;;;;;3.27;60.79;96715.77;110216;1248;68529;-65
2022/01/31 08:26:17;;;;;;;14.40;6.30;;;;;;;3.29;60.57;96712.19;110323;1247;70035;-65
2022/01/31 08:28:57;;;;;;;13.60;5.90;;;;;;;3.32;60.03;96712.90;110232;1247;59634;-66
2022/01/31 08:31:35;;;;;;;23.90;8.20;;;;;;;3.34;59.33;96710.73;110306;1246;59602;-68
2022/01/31 08:36:35;;;;;;;18.90;7.50;;;;;;;3.85;59.70;96709.25;109947;1250;67757;-65
2022/01/31 08:39:17;;;;;;;14.60;5.30;;;;;;;4.18;59.23;96702.66;110088;1246;68781;-65
2022/01/31 08:41:49;;;;;;;9.10;4.30;;;;;;;4.32;56.17;96704.29;110258;1247;59702;-68
2022/01/31 08:44:20;;;;;;;9.30;5.00;;;;;;;4.31;56.36;96691.41;110266;1247;59741;-66
2022/01/31 08:46:51;;;;;;;10.90;6.30;;;;;;;4.38;57.97;96682.20;110193;1247;71495;-66
2022/01/31 08:49:20;;;;;;;9.40;5.40;;;;;;;4.48;57.30;96683.14;110510;1244;69465;-67
2022/01/31 08:51:50;;;;;;;12.60;5.30;;;;;;;4.89;55.49;96686.02;110349;1244;69408;-66
2022/01/31 08:54:20;;;;;;;8.80;4.40;;;;;;;5.56;53.73;96679.34;110446;1244;59729;-66
2022/01/31 08:56:49;;;;;;;;;;;;;;;6.54;51.12;96668.57;110466;1244;59703;-65
2022/01/31 08:59:22;;;;;;;12.40;5.10;;;;;;;7.57;48.46;96665.81;110534;1244;71519;-67
2022/01/31 09:02:06;;;;;;;9.30;4.00;;;;;;;8.37;44.89;96661.66;110619;1244;69193;-67
2022/01/31 09:04:47;;;;;;;8.40;3.60;;;;;;;8.94;42.83;96662.83;110518;1244;68988;-67
2022/01/31 09:07:19;;;;;;;8.40;3.70;;;;;;;9.72;41.48;96659.23;110187;1247;59691;-70
2022/01/31 09:09:53;;;;;;;8.60;5.30;;;;;;;10.54;40.13;96654.87;110595;1245;59690;-66
2022/01/31 09:12:30;;;;;;;8.50;3.70;;;;;;;11.27;37.27;96651.23;110174;1247;70691;-66
2022/01/31 09:14:59;;;;;;;9.20;4.50;;;;;;;11.90;37.53;96652.90;110506;1247;67891;-67
2022/01/31 09:17:28;;;;;;;11.50;5.00;;;;;;;12.91;36.89;96647.86;110375;1246;68794;-66
2022/01/31 09:19:57;;;;;;;8.50;4.70;;;;;;;13.40;34.37;96641.98;110546;1246;59742;-66
2022/01/31 09:22:26;;;;;;;8.90;3.60;;;;;;;13.53;32.66;96639.38;110521;1246;60004;-67
2022/01/31 09:24:55;;;;;;;5.80;2.90;;;;;;;13.73;32.63;96632.98;110082;1247;71609;-67
2022/01/31 09:27:24;;;;;;;9.10;4.30;;;;;;;14.56;32.02;96625.11;110135;1247;68180;-66
2022/01/31 09:29:53;;;;;;;7.80;3.80;;;;;;;15.33;30.00;96625.95;110358;1247;69087;-66
2022/01/31 09:32:24;;;;;;;8.70;4.90;;;;;;;15.90;30.60;96623.48;110363;1247;59688;-67
2022/01/31 09:34:53;;;;;;;8.90;4.70;;;;;;;16.52;29.69;96619.08;110498;1247;59685;-67
2022/01/31 09:37:23;;;;;;;9.00;4.40;;;;;;;17.08;28.77;96612.39;110495;1247;72171;-67
2022/01/31 09:39:53;;;;;;;8.40;4.00;;;;;;;17.41;26.65;96606.86;110540;1247;67629;-67
2022/01/31 09:42:31;;;;;;;6.70;3.60;;;;;;;17.53;26.77;96595.63;110226;1247;68670;-66
2022/01/31 09:50:20;;;;;;;8.70;3.40;;;;;;;17.15;24.63;96571.75;110563;1247;71523;-66
2022/01/31 09:52:50;;;;;;;7.40;2.90;;;;;;;17.15;25.39;96565.67;110585;1246;66944;-67
2022/01/31 09:55:20;;;;;;;6.70;3.10;;;;;;;17.43;24.99;96562.57;110205;1247;69241;-65
2022/01/31 09:57:49;;;;;;;8.30;4.10;;;;;;;18.12;24.33;96560.13;110536;1247;59685;-66
2022/01/31 10:00:18;;;;;;;8.70;4.60;;;;;;;17.68;23.02;96556.43;110551;1246;60195;-66
2022/01/31 10:03:07;;;;;;;9.60;3.90;;;;;;;16.92;23.89;96558.00;110567;1247;72321;-67
2022/01/31 10:05:38;;;;;;;10.80;4.00;;;;;;;15.72;25.56;96556.32;110536;1247;68626;-66
2022/01/31 10:08:12;;;;;;;;;;;;;;;14.08;27.18;96556.64;110246;1245;68446;-66
2022/01/31 10:10:45;;;;;;;8.30;3.60;;;;;;;12.36;29.04;96560.05;110537;1244;60105;-68
2022/01/31 10:16:43;;;;;;;9.70;3.50;;;;;;;10.10;33.03;96554.50;109452;1254;70753;-67
2022/01/31 10:19:40;;;;;;;10.20;5.20;;;;;;;9.24;34.85;96554.02;109487;1254;68467;-65
2022/01/31 10:22:12;;;;;;;7.40;3.60;;;;;;;8.82;35.68;96552.91;109554;1254;69407;-68
2022/01/31 10:24:44;;;;;;;9.50;3.90;;;;;;;8.36;36.82;96549.74;109612;1254;60124;-68
2022/01/31 10:27:14;;;;;;;7.70;4.00;;;;;;;8.31;37.12;96546.30;109540;1254;59845;-66
2022/01/31 10:29:46;;;;;;;7.20;3.20;;;;;;;8.08;37.27;96545.79;109421;1254;72117;-67
2022/01/31 10:32:23;;;;;;;12.10;4.70;;;;;;;7.98;37.71;96543.79;109532;1253;67826;-65
2022/01/31 10:34:56;;;;;;;6.70;2.80;;;;;;;8.09;37.51;96547.14;109581;1254;69518;-67
2022/01/31 10:37:26;;;;;;;10.80;4.00;;;;;;;8.26;37.21;96546.80;109559;1253;59673;-67
2022/01/31 10:56:49;;;;;;;7.60;3.40;;;;;;;9.14;35.07;96508.50;110504;1246;71564;-67
2022/01/31 10:59:27;;;;;;;9.90;3.90;;;;;;;10.13;33.95;96500.89;110458;1246;69134;-68
2022/01/31 11:01:58;;;;;;;7.00;3.30;;;;;;;10.41;32.47;96499.38;110365;1247;70057;-68
2022/01/31 11:04:36;;;;;;;6.80;3.20;;;;;;;10.37;32.39;96503.77;110393;1245;59717;-69
2022/01/31 11:07:08;;;;;;;9.20;4.10;;;;;;;10.87;31.56;96500.54;110476;1247;59672;-67
2022/01/31 11:09:37;;;;;;;7.90;3.50;;;;;;;11.91;30.69;96498.39;110591;1247;72113;-67
2022/01/31 11:12:09;;;;;;;15.50;5.10;;;;;;;13.28;29.37;96490.58;110548;1246;68305;-69
2022/01/31 11:14:41;;;;;;;10.20;4.30;;;;;;;13.28;28.17;96482.27;110489;1246;69448;-68
2022/01/31 11:17:16;;;;;;;8.20;3.50;;;;;;;12.82;28.94;96484.15;110548;1247;59627;-65
2022/01/31 11:19:49;;;;;;;7.40;3.20;;;;;;;11.96;29.30;96483.09;110260;1247;59668;-66
2022/01/31 11:22:27;;;;;;;5.90;3.20;;;;;;;12.28;30.34;96490.35;110524;1245;71530;-67
2022/01/31 11:25:20;;;;;;;7.60;4.00;;;;;;;12.32;29.40;96483.34;110516;1246;69502;-67
2022/01/31 11:27:54;;;;;;;8.20;3.10;;;;;;;11.89;29.56;96480.05;110572;1246;69636;-66
2022/01/31 11:30:23;;;;;;;8.00;3.40;;;;;;;12.09;29.37;96472.04;110502;1247;59595;-67
2022/01/31 11:32:53;;;;;;;6.40;3.00;;;;;;;12.63;27.89;96461.36;110256;1247;59689;-67
2022/01/31 11:35:23;;;;;;;9.50;3.50;;;;;;;12.91;27.90;96458.17;110579;1246;72218;-68
2022/01/31 11:37:53;;;;;;;7.30;3.30;;;;;;;12.74;27.34;96447.52;110590;1246;67733;-68
2022/01/31 11:40:22;;;;;;;6.00;3.20;;;;;;;12.42;27.47;96454.63;110217;1247;69221;-67
2022/01/31 11:42:52;;;;;;;6.00;2.80;;;;;;;11.95;28.38;96452.39;110515;1247;59736;-68
2022/01/31 11:45:26;;;;;;;6.30;2.60;;;;;;;11.91;28.81;96452.27;110564;1246;59645;-67
2022/01/31 11:47:58;;;;;;;7.30;3.00;;;;;;;12.77;27.87;96440.35;110558;1246;72095;-69
2022/01/31 11:50:28;;;;;;;5.70;2.60;;;;;;;13.56;26.04;96438.31;110593;1247;67563;-68
2022/01/31 11:53:01;;;;;;;6.20;2.50;;;;;;;13.96;25.57;96434.86;110534;1246;70000;-68
2022/01/31 11:55:35;;;;;;;7.20;3.60;;;;;;;14.93;24.97;96431.33;110508;1247;59688;-67
2022/01/31 11:58:17;;;;;;;5.60;2.60;;;;;;;14.94;24.38;96434.27;110495;1247;59739;-66
2022/01/31 12:00:47;;;;;;;5.10;2.60;;;;;;;15.33;24.40;96433.92;110512;1244;71305;-67
2022/01/31 12:03:17;;;;;;;8.10;3.40;;;;;;;16.16;23.80;96439.27;110275;1244;67413;-66
2022/01/31 12:05:49;;;;;;;8.10;2.70;;;;;;;16.76;23.10;96433.77;110567;1244;69923;-68
2022/01/31 12:08:22;;;;;;;6.60;2.50;;;;;;;17.40;22.80;96430.66;110558;1244;59641;-68
2022/01/31 12:10:54;;;;;;;7.60;3.50;;;;;;;18.04;21.92;96427.45;110548;1245;59653;-68
2022/01/31 12:13:42;;;;;;;6.10;2.60;;;;;;;18.53;22.35;96421.25;110561;1244;71748;-66
2022/01/31 12:16:39;;;;;;;6.20;2.40;;;;;;;18.45;20.00;96418.84;110639;1244;67723;-68
2022/01/31 12:22:05;;;;;;;6.10;2.70;;;;;;;15.54;23.35;96417.98;110489;1244;59748;-66